Flight Track Log - Related Links

Times and Time Zones

All times are in EDT time to prevent confusion due to time zone crossing. See the N9HM flight status page for this flight to view local times or setup timezone preferences in your user account.

Time Position Orientation Groundspeed Altitude Reporting Facility
EDT Latitude Longitude Course Direction KTS MPH feet Rate Location/Type
Sat 12:35:31 PM 35.2575 -120.6481 North 73 84 1,600  Level Los Angeles Center
Sat 12:36:32 PM 35.2828 -120.6453 North 86 99 2,600 990 Climbing Los Angeles Center
Sat 12:37:14 PM 35.2989 -120.6464 357° North 93 107 3,300 923 Climbing Los Angeles Center
Sat 12:38:16 PM 35.3264 -120.6422 North 96 110 4,200 871 Climbing Los Angeles Center
Sat 12:39:18 PM 35.3556 -120.6403 North 100 115 5,100 774 Climbing Los Angeles Center
Sat 12:40:20 PM 35.3858 -120.6375 North 105 121 5,800 774 Climbing Los Angeles Center
Sat 12:41:00 PM 35.4748 -120.6148 North  Level Estimated
Sat 12:41:22 PM 35.4233 -120.6283 11° North 111 128 6,700  Level Los Angeles Center
Sat 12:42:24 PM 35.4561 -120.6247 North 116 133 7,500 672 Climbing Los Angeles Center
Sat 12:43:27 PM 35.4878 -120.6225 North 116 133 8,100 576 Climbing Los Angeles Center
Sat 12:44:29 PM 35.5192 -120.6178 North 115 132 8,700 581 Climbing Los Angeles Center
Sat 12:45:31 PM 35.5519 -120.6106 10° North 118 136 9,300 581 Climbing Los Angeles Center
Sat 12:46:33 PM 35.5847 -120.6081 North 119 137 9,900 581 Climbing Los Angeles Center
Sat 12:47:35 PM 35.6258 -120.6047 North 123 142 10,500 290 Climbing Los Angeles Center
Sat 12:48:37 PM 35.6664 -120.5997 North 139 160 10,500  Level Los Angeles Center
Sat 12:49:39 PM 35.7086 -120.5964 North 150 173 10,500  Level Los Angeles Center
Sat 12:50:41 PM 35.7508 -120.5936 North 152 175 10,500  Level Los Angeles Center
Sat 12:51:43 PM 35.7925 -120.5889 North 151 174 10,500  Level Los Angeles Center
Sat 12:52:50 PM 35.8425 -120.5803 North 151 174 10,500  Level Oakland Center
Sat 12:53:51 PM 35.8856 -120.5767 North 155 178 10,500  Level Oakland Center
Sat 12:54:52 PM 35.9278 -120.5717 North 154 177 10,500 49 Level Oakland Center
Sat 12:55:54 PM 35.9697 -120.5667 North 152 175 10,600 49 Climbing Oakland Center
Sat 12:56:55 PM 36.0111 -120.5633 North 151 174 10,600  Level Oakland Center
Sat 12:57:56 PM 36.0514 -120.5569 North 147 169 10,600  Level Oakland Center
Sat 12:58:57 PM 36.0931 -120.5519 North 149 171 10,600  Level Oakland Center
Sat 12:59:58 PM 36.1350 -120.5478 North 151 174 10,600  Level Oakland Center
Sat 01:01:00 PM 36.1764 -120.5417 North 150 173 10,600 -49 Level Oakland Center
Sat 01:02:01 PM 36.2269 -120.5328 North 153 176 10,500 -49 Descending Oakland Center
Sat 01:03:02 PM 36.2700 -120.5275 North 155 178 10,500  Level Oakland Center
Sat 01:04:03 PM 36.3108 -120.5222 North 150 173 10,500  Level Oakland Center
Sat 01:05:04 PM 36.3536 -120.5169 North 152 175 10,500  Level Oakland Center
Sat 01:06:06 PM 36.3956 -120.5097 North 154 177 10,500  Level Oakland Center
Sat 01:07:07 PM 36.4369 -120.5061 North 150 173 10,500  Level Oakland Center
Sat 01:08:08 PM 36.4797 -120.5006 North 153 176 10,500  Level Oakland Center
Sat 01:09:09 PM 36.5222 -120.4950 North 153 176 10,500  Level Oakland Center
Sat 01:10:10 PM 36.5644 -120.4900 North 153 176 10,500 49 Level Oakland Center
Sat 01:11:12 PM 36.6067 -120.4858 North 153 176 10,600 49 Climbing Oakland Center
Sat 01:12:13 PM 36.6575 -120.4786 North 153 176 10,600  Level Oakland Center
Sat 01:13:14 PM 36.6992 -120.4739 North 150 173 10,600  Level Oakland Center
Sat 01:14:15 PM 36.7411 -120.4681 North 151 174 10,600  Level Oakland Center
Sat 01:15:16 PM 36.7831 -120.4619 North 152 175 10,600  Level Oakland Center
Sat 01:16:18 PM 36.8269 -120.4553 North 150 173 10,600  Level Oakland Center
Sat 01:17:19 PM 36.8692 -120.4497 North 152 175 10,600  Level Oakland Center
Sat 01:18:20 PM 36.9108 -120.4433 North 152 175 10,600  Level Oakland Center
Sat 01:19:21 PM 36.9522 -120.4400 North 149 171 10,600  Level Oakland Center
Sat 01:20:23 PM 36.9939 -120.4369 North 149 171 10,600  Level Oakland Center
Sat 01:21:24 PM 37.0361 -120.4347 North 151 174 10,600  Level Oakland Center
Sat 01:22:25 PM 37.0778 -120.4328 North 150 173 10,600  Level Oakland Center
Sat 01:23:26 PM 37.1200 -120.4292 North 150 173 10,600  Level Oakland Center
Sat 01:24:05 PM 37.1500 -120.4333 354° North 149 171 10,600  Level Northern Cal TRACON
Sat 01:25:05 PM 37.2000 -120.4167 15° North 154 177 10,600  Level Northern Cal TRACON
Sat 01:26:05 PM 37.2333 -120.4167 360° North 122 140 10,600  Level Northern Cal TRACON
Sat 01:28:05 PM 37.3167 -120.4000 North 151 174 10,600  Level Northern Cal TRACON
Sat 01:29:05 PM 37.3667 -120.4000 360° North 153 176 10,600  Level Northern Cal TRACON
Sat 01:31:05 PM 37.4500 -120.4000 360° North 148 170 10,600  Level Northern Cal TRACON
Sat 01:32:38 PM 37.5011 -120.3861 12° North 148 170 10,600  Level Oakland Center
Sat 01:33:39 PM 37.5417 -120.3797 North 148 170 10,600  Level Oakland Center
Sat 01:34:40 PM 37.5819 -120.3733 North 146 168 10,600  Level Oakland Center
Sat 01:35:42 PM 37.6308 -120.3667 North 148 170 10,600  Level Oakland Center
Sat 01:36:43 PM 37.6719 -120.3600 North 148 170 10,600  Level Oakland Center
Sat 01:37:44 PM 37.7131 -120.3531 North 148 170 10,600  Level Oakland Center
Sat 01:38:46 PM 37.7536 -120.3469 North 147 169 10,600  Level Oakland Center
Sat 01:39:47 PM 37.7950 -120.3386 North 148 170 10,600  Level Oakland Center
Sat 01:40:48 PM 37.8361 -120.3325 North 149 171 10,600  Level Oakland Center
Sat 01:41:50 PM 37.8769 -120.3253 North 149 171 10,600  Level Oakland Center
Sat 01:42:51 PM 37.9167 -120.3219 North 145 167 10,600  Level Oakland Center
Sat 01:43:52 PM 37.9569 -120.3175 North 146 168 10,600  Level Oakland Center
Sat 01:44:54 PM 37.9997 -120.3131 North 151 174 10,600  Level Oakland Center
Sat 01:45:55 PM 38.0492 -120.3094 North 150 173 10,600  Level Oakland Center
Sat 01:46:56 PM 38.0892 -120.3053 North 145 167 10,600  Level Oakland Center
Sat 01:47:58 PM 38.1308 -120.3000 North 148 170 10,600  Level Oakland Center
Sat 01:48:59 PM 38.1711 -120.2942 North 148 170 10,600  Level Oakland Center
Sat 01:50:00 PM 38.2142 -120.2881 North 150 173 10,600  Level Oakland Center
Sat 01:51:02 PM 38.2550 -120.2831 North 150 173 10,600  Level Oakland Center
Sat 01:52:03 PM 38.2953 -120.2775 North 147 169 10,600  Level Oakland Center
Sat 01:53:05 PM 38.3375 -120.2703 North 150 173 10,600  Level Oakland Center
Sat 01:54:06 PM 38.3789 -120.2647 North 149 171 10,600  Level Oakland Center
Sat 01:55:07 PM 38.4283 -120.2578 North 149 171 10,600  Level Oakland Center
Sat 01:56:09 PM 38.4711 -120.2511 North 152 175 10,600  Level Oakland Center
Sat 01:57:10 PM 38.5122 -120.2464 North 151 174 10,600  Level Oakland Center
Sat 01:58:12 PM 38.5525 -120.2406 North 148 170 10,600  Level Oakland Center
Sat 01:59:13 PM 38.5933 -120.2358 North 148 170 10,600  Level Oakland Center
Sat 02:00:15 PM 38.6350 -120.2311 North 149 171 10,600  Level Oakland Center
Sat 02:01:16 PM 38.6778 -120.2264 North 152 175 10,600  Level Oakland Center
Sat 02:02:17 PM 38.7192 -120.2219 North 150 173 10,600 -98 Level Oakland Center
Sat 02:03:19 PM 38.7706 -120.2175 North 152 175 10,400 -98 Descending Oakland Center
Sat 02:04:20 PM 38.8103 -120.2136 North 148 170 10,400 49 Level Oakland Center
Sat 02:05:22 PM 38.8522 -120.2075 North 150 173 10,500 49 Climbing Oakland Center
Sat 02:06:23 PM 38.8925 -120.2022 North 148 170 10,500 -98 Level Oakland Center
Sat 02:07:25 PM 38.9342 -120.1983 North 148 170 10,300 -194 Descending Oakland Center

Login

Don't have an account? Register now (free) for customized features, flight alerts, and more!